RYR99BQ LFRS-EGPH
Flight info
| Callsign | RYR99BQ |
|---|---|
| Flight time | 1h 25m |
| Altitude | 38000 |
| Route | BALNI DCT RINSO UN867 VASUX DCT TNT UN57 POL UN601 RIBEL DCT INPIP |
| Aircraft | B738/M-SDE3FGILRWY/SB1 |
Departure
| Time | 2026-05-01 11:27 |
|---|---|
| Airport | Nantes Atlantique Airport (LFRS) |
Arrival
| Time | 2026-05-01 12:53 |
|---|---|
| Airport | Edinburgh Airport (EGPH) |
| Time | Latitude | Longitude | Altitude | Speed | Heading |
|---|---|---|---|---|---|
| 2026-05-01 10:56 | 47.15605 | -1.60052 | 89 ft | 0 kts | 45° |
| 2026-05-01 11:18 | 47.15602 | -1.60056 | 89 ft | 3 kts | 45° |
| 2026-05-01 11:18 | 47.15583 | -1.60084 | 89 ft | 4 kts | 44° |
| 2026-05-01 11:18 | 47.15567 | -1.60107 | 90 ft | 4 kts | 57° |
| 2026-05-01 11:18 | 47.15561 | -1.60139 | 92 ft | 4 kts | 114° |
| 2026-05-01 11:19 | 47.15575 | -1.60171 | 90 ft | 3 kts | 118° |
| 2026-05-01 11:19 | 47.15586 | -1.60204 | 91 ft | 4 kts | 117° |
| 2026-05-01 11:19 | 47.15599 | -1.60239 | 91 ft | 4 kts | 117° |
| 2026-05-01 11:19 | 47.15609 | -1.60268 | 89 ft | 3 kts | 117° |
| 2026-05-01 11:20 | 47.15624 | -1.60298 | 91 ft | 4 kts | 140° |
| 2026-05-01 11:20 | 47.15632 | -1.60307 | 92 ft | 1 kts | 139° |
| 2026-05-01 11:22 | 47.15629 | -1.60303 | 91 ft | 3 kts | 139° |
| 2026-05-01 11:22 | 47.15588 | -1.60276 | 90 ft | 8 kts | 177° |
| 2026-05-01 11:22 | 47.15536 | -1.60312 | 89 ft | 10 kts | 227° |
| 2026-05-01 11:22 | 47.15528 | -1.60416 | 92 ft | 12 kts | 292° |
| 2026-05-01 11:23 | 47.15574 | -1.60517 | 90 ft | 12 kts | 306° |
| 2026-05-01 11:23 | 47.15553 | -1.60625 | 90 ft | 14 kts | 211° |
| 2026-05-01 11:23 | 47.15465 | -1.60693 | 91 ft | 15 kts | 207° |
| 2026-05-01 11:23 | 47.15372 | -1.60765 | 91 ft | 15 kts | 207° |
| 2026-05-01 11:24 | 47.15270 | -1.60841 | 89 ft | 19 kts | 207° |
| 2026-05-01 11:24 | 47.15135 | -1.60944 | 90 ft | 23 kts | 207° |
| 2026-05-01 11:24 | 47.14863 | -1.61151 | 89 ft | 21 kts | 208° |
| 2026-05-01 11:25 | 47.14733 | -1.61249 | 91 ft | 21 kts | 207° |
| 2026-05-01 11:25 | 47.14480 | -1.61442 | 88 ft | 21 kts | 207° |
| 2026-05-01 11:25 | 47.14348 | -1.61542 | 86 ft | 22 kts | 207° |
| 2026-05-01 11:26 | 47.14215 | -1.61643 | 83 ft | 20 kts | 207° |
| 2026-05-01 11:26 | 47.14178 | -1.61931 | 87 ft | 11 kts | 352° |
| 2026-05-01 11:26 | 47.14207 | -1.61918 | 85 ft | 2 kts | 27° |
| 2026-05-01 11:27 | 47.14434 | -1.61746 | 90 ft | 71 kts | 27° |
| 2026-05-01 11:27 | 47.15069 | -1.61261 | 88 ft | 132 kts | 27° |
| 2026-05-01 11:27 | 47.16025 | -1.60524 | 159 ft | 172 kts | 28° |
| 2026-05-01 11:27 | 47.17095 | -1.59679 | 790 ft | 174 kts | 27° |
| 2026-05-01 11:28 | 47.18246 | -1.59252 | 1495 ft | 176 kts | 356° |
| 2026-05-01 11:28 | 47.19444 | -1.59910 | 1794 ft | 203 kts | 322° |
| 2026-05-01 11:28 | 47.20504 | -1.61279 | 2528 ft | 203 kts | 317° |
| 2026-05-01 11:29 | 47.23133 | -1.62596 | 3580 ft | 223 kts | 359° |
| 2026-05-01 11:29 | 47.24749 | -1.62653 | 3813 ft | 240 kts | 357° |
| 2026-05-01 11:29 | 47.28300 | -1.62928 | 4483 ft | 269 kts | 355° |
| 2026-05-01 11:30 | 47.30170 | -1.63143 | 5262 ft | 270 kts | 354° |
| 2026-05-01 11:30 | 47.31436 | -1.63309 | 5793 ft | 271 kts | 354° |
| 2026-05-01 11:30 | 47.33326 | -1.63565 | 6545 ft | 275 kts | 354° |
| 2026-05-01 11:30 | 47.35248 | -1.63827 | 7260 ft | 280 kts | 354° |
| 2026-05-01 11:31 | 47.37202 | -1.64093 | 7988 ft | 284 kts | 354° |
| 2026-05-01 11:31 | 47.39187 | -1.64361 | 8736 ft | 289 kts | 354° |
| 2026-05-01 11:31 | 47.41206 | -1.64631 | 9559 ft | 294 kts | 354° |
| 2026-05-01 11:31 | 47.43263 | -1.64907 | 10397 ft | 300 kts | 355° |
| 2026-05-01 11:32 | 47.45388 | -1.65193 | 10753 ft | 322 kts | 355° |
| 2026-05-01 11:32 | 47.47718 | -1.65506 | 11124 ft | 342 kts | 354° |
| 2026-05-01 11:32 | 47.50115 | -1.65835 | 11803 ft | 350 kts | 355° |
| 2026-05-01 11:32 | 47.52552 | -1.66165 | 12600 ft | 353 kts | 355° |
| 2026-05-01 11:33 | 47.55010 | -1.66494 | 13398 ft | 357 kts | 355° |
| 2026-05-01 11:33 | 47.57502 | -1.66829 | 14164 ft | 362 kts | 355° |
| 2026-05-01 11:33 | 47.60022 | -1.67168 | 14904 ft | 366 kts | 355° |
| 2026-05-01 11:33 | 47.62569 | -1.67003 | 15659 ft | 369 kts | 15° |
| 2026-05-01 11:34 | 47.64988 | -1.65732 | 16501 ft | 369 kts | 22° |
| 2026-05-01 11:34 | 47.67359 | -1.64334 | 17234 ft | 374 kts | 22° |
| 2026-05-01 11:34 | 47.69784 | -1.62887 | 17957 ft | 378 kts | 22° |
| 2026-05-01 11:34 | 47.72242 | -1.61425 | 18675 ft | 383 kts | 22° |
| 2026-05-01 11:35 | 47.74727 | -1.59960 | 19339 ft | 386 kts | 22° |
| 2026-05-01 11:35 | 47.77231 | -1.58494 | 20011 ft | 388 kts | 22° |
| 2026-05-01 11:35 | 47.79752 | -1.57023 | 20663 ft | 391 kts | 22° |
| 2026-05-01 11:35 | 47.81043 | -1.56271 | 20977 ft | 393 kts | 22° |
| 2026-05-01 11:36 | 47.82229 | -1.55580 | 21268 ft | 395 kts | 22° |
| 2026-05-01 11:36 | 47.84802 | -1.54081 | 21895 ft | 398 kts | 22° |
| 2026-05-01 11:37 | 47.87388 | -1.52573 | 22516 ft | 402 kts | 22° |
| 2026-05-01 11:37 | 47.90002 | -1.51046 | 23127 ft | 405 kts | 22° |
| 2026-05-01 11:37 | 47.92636 | -1.49505 | 23731 ft | 408 kts | 23° |
| 2026-05-01 11:37 | 47.95286 | -1.47954 | 24236 ft | 411 kts | 22° |
| 2026-05-01 11:38 | 47.97955 | -1.46392 | 24730 ft | 414 kts | 22° |
| 2026-05-01 11:38 | 48.00659 | -1.44864 | 25224 ft | 417 kts | 18° |
| 2026-05-01 11:38 | 48.03500 | -1.43911 | 25690 ft | 422 kts | 8° |
| 2026-05-01 11:38 | 48.06439 | -1.43689 | 26167 ft | 425 kts | 359° |
| 2026-05-01 11:39 | 48.09403 | -1.43887 | 26680 ft | 428 kts | 357° |
| 2026-05-01 11:39 | 48.12381 | -1.44150 | 27155 ft | 430 kts | 357° |
| 2026-05-01 11:39 | 48.15377 | -1.44424 | 27614 ft | 432 kts | 357° |
| 2026-05-01 11:39 | 48.18386 | -1.44686 | 28058 ft | 435 kts | 357° |
| 2026-05-01 11:40 | 48.21416 | -1.44933 | 28479 ft | 438 kts | 357° |
| 2026-05-01 11:40 | 48.24471 | -1.45168 | 28859 ft | 441 kts | 358° |
| 2026-05-01 11:40 | 48.27552 | -1.45395 | 29252 ft | 444 kts | 358° |
| 2026-05-01 11:40 | 48.30641 | -1.45618 | 29676 ft | 446 kts | 358° |
| 2026-05-01 11:41 | 48.33751 | -1.45840 | 30098 ft | 448 kts | 358° |
| 2026-05-01 11:41 | 48.36876 | -1.46063 | 30448 ft | 450 kts | 357° |
| 2026-05-01 11:41 | 48.40014 | -1.46288 | 30757 ft | 453 kts | 357° |
| 2026-05-01 11:41 | 48.43167 | -1.46514 | 31072 ft | 455 kts | 357° |
| 2026-05-01 11:42 | 48.46340 | -1.46743 | 31321 ft | 458 kts | 357° |
| 2026-05-01 11:42 | 48.49535 | -1.46974 | 31633 ft | 460 kts | 357° |
| 2026-05-01 11:42 | 48.52723 | -1.47204 | 32102 ft | 457 kts | 357° |
| 2026-05-01 11:42 | 48.55897 | -1.47434 | 32552 ft | 456 kts | 356° |
| 2026-05-01 11:43 | 48.59012 | -1.47659 | 33067 ft | 452 kts | 356° |
| 2026-05-01 11:43 | 48.62140 | -1.47885 | 33574 ft | 449 kts | 356° |
| 2026-05-01 11:43 | 48.65258 | -1.48111 | 34004 ft | 448 kts | 356° |
| 2026-05-01 11:44 | 48.71483 | -1.48564 | 34595 ft | 449 kts | 356° |
| 2026-05-01 11:44 | 48.74609 | -1.48791 | 34900 ft | 449 kts | 356° |
| 2026-05-01 11:44 | 48.77725 | -1.49017 | 35223 ft | 449 kts | 356° |
| 2026-05-01 11:44 | 48.80847 | -1.49244 | 35484 ft | 449 kts | 356° |
| 2026-05-01 11:45 | 48.83971 | -1.49471 | 35799 ft | 449 kts | 356° |
| 2026-05-01 11:45 | 48.87089 | -1.49699 | 36082 ft | 449 kts | 356° |
| 2026-05-01 11:45 | 48.90212 | -1.49899 | 36367 ft | 449 kts | 359° |
| 2026-05-01 11:45 | 48.93332 | -1.49738 | 36661 ft | 449 kts | 3° |
| 2026-05-01 11:46 | 48.96453 | -1.49376 | 36911 ft | 450 kts | 4° |
| 2026-05-01 11:46 | 48.99567 | -1.48948 | 37211 ft | 449 kts | 4° |
| 2026-05-01 11:46 | 49.02684 | -1.48512 | 37454 ft | 450 kts | 4° |
| 2026-05-01 11:46 | 49.05801 | -1.48094 | 37732 ft | 449 kts | 4° |
| 2026-05-01 11:47 | 49.08915 | -1.47697 | 38011 ft | 449 kts | 4° |
| 2026-05-01 11:47 | 49.12035 | -1.47315 | 38190 ft | 450 kts | 4° |
| 2026-05-01 11:47 | 49.18308 | -1.46571 | 38224 ft | 453 kts | 4° |
| 2026-05-01 11:48 | 49.24571 | -1.45833 | 38217 ft | 450 kts | 4° |
| 2026-05-01 11:48 | 49.30801 | -1.45095 | 38220 ft | 448 kts | 4° |
| 2026-05-01 11:49 | 49.37005 | -1.44356 | 38217 ft | 447 kts | 4° |
| 2026-05-01 11:49 | 49.43197 | -1.43616 | 38211 ft | 446 kts | 4° |
| 2026-05-01 11:50 | 49.49385 | -1.42874 | 38218 ft | 446 kts | 4° |
| 2026-05-01 11:50 | 49.55577 | -1.42129 | 38220 ft | 447 kts | 4° |
| 2026-05-01 11:51 | 49.61751 | -1.41422 | 38216 ft | 449 kts | 3° |
| 2026-05-01 11:51 | 49.67994 | -1.40875 | 38212 ft | 450 kts | 2° |
| 2026-05-01 11:52 | 49.74256 | -1.40343 | 38223 ft | 451 kts | 3° |
| 2026-05-01 11:52 | 49.80532 | -1.39783 | 38214 ft | 453 kts | 3° |
| 2026-05-01 11:53 | 49.86835 | -1.39209 | 38211 ft | 454 kts | 3° |
| 2026-05-01 11:53 | 49.93137 | -1.38632 | 38218 ft | 454 kts | 3° |
| 2026-05-01 11:54 | 49.99451 | -1.38055 | 38220 ft | 455 kts | 3° |
| 2026-05-01 11:54 | 50.05723 | -1.36820 | 38212 ft | 454 kts | 9° |
| 2026-05-01 11:55 | 50.11957 | -1.35158 | 38218 ft | 454 kts | 9° |
| 2026-05-01 11:55 | 50.18189 | -1.33534 | 38217 ft | 454 kts | 9° |
| 2026-05-01 11:56 | 50.24421 | -1.31972 | 38211 ft | 454 kts | 9° |
| 2026-05-01 11:56 | 50.30650 | -1.30426 | 38216 ft | 453 kts | 9° |
| 2026-05-01 11:57 | 50.36877 | -1.28873 | 38212 ft | 453 kts | 9° |
| 2026-05-01 11:57 | 50.43106 | -1.27311 | 38210 ft | 453 kts | 9° |
| 2026-05-01 11:58 | 50.49334 | -1.25797 | 38211 ft | 453 kts | 5° |
| 2026-05-01 11:58 | 50.55569 | -1.26089 | 38214 ft | 452 kts | 353° |
| 2026-05-01 11:59 | 50.58701 | -1.26618 | 38201 ft | 453 kts | 353° |
| 2026-05-01 11:59 | 50.65010 | -1.27716 | 38200 ft | 453 kts | 353° |
| 2026-05-01 12:00 | 50.74431 | -1.29249 | 38192 ft | 454 kts | 353° |
| 2026-05-01 12:01 | 50.83843 | -1.30716 | 38190 ft | 456 kts | 354° |
| 2026-05-01 12:01 | 50.90159 | -1.31699 | 38186 ft | 457 kts | 353° |
| 2026-05-01 12:02 | 50.96497 | -1.32691 | 38186 ft | 458 kts | 353° |
| 2026-05-01 12:02 | 51.02844 | -1.33687 | 38187 ft | 459 kts | 353° |
| 2026-05-01 12:03 | 51.09198 | -1.34688 | 38180 ft | 459 kts | 353° |
| 2026-05-01 12:03 | 51.15558 | -1.35692 | 38159 ft | 459 kts | 353° |
| 2026-05-01 12:04 | 51.21922 | -1.36700 | 38159 ft | 459 kts | 353° |
| 2026-05-01 12:04 | 51.28285 | -1.37710 | 38161 ft | 459 kts | 353° |
| 2026-05-01 12:05 | 51.34641 | -1.38722 | 38156 ft | 459 kts | 353° |
| 2026-05-01 12:05 | 51.44173 | -1.40245 | 38156 ft | 458 kts | 353° |
| 2026-05-01 12:06 | 51.50517 | -1.41262 | 38153 ft | 458 kts | 353° |
| 2026-05-01 12:06 | 51.56853 | -1.42281 | 38159 ft | 458 kts | 353° |
| 2026-05-01 12:07 | 51.63194 | -1.43303 | 38152 ft | 457 kts | 353° |
| 2026-05-01 12:07 | 51.69524 | -1.44327 | 38158 ft | 457 kts | 353° |
| 2026-05-01 12:08 | 51.75855 | -1.45353 | 38160 ft | 457 kts | 353° |
| 2026-05-01 12:08 | 51.82187 | -1.46383 | 38165 ft | 457 kts | 353° |
| 2026-05-01 12:09 | 51.88524 | -1.47416 | 38156 ft | 458 kts | 353° |
| 2026-05-01 12:09 | 51.94862 | -1.48453 | 38153 ft | 458 kts | 353° |
| 2026-05-01 12:10 | 52.04366 | -1.50012 | 38160 ft | 458 kts | 353° |
| 2026-05-01 12:11 | 52.13873 | -1.51579 | 38153 ft | 458 kts | 353° |
| 2026-05-01 12:11 | 52.20213 | -1.52627 | 38161 ft | 458 kts | 353° |
| 2026-05-01 12:12 | 52.26559 | -1.53680 | 38156 ft | 458 kts | 353° |
| 2026-05-01 12:12 | 52.32902 | -1.54735 | 38151 ft | 459 kts | 353° |
| 2026-05-01 12:13 | 52.39253 | -1.55795 | 38157 ft | 459 kts | 353° |
| 2026-05-01 12:13 | 52.45609 | -1.56858 | 38157 ft | 459 kts | 353° |
| 2026-05-01 12:14 | 52.51926 | -1.57917 | 38160 ft | 459 kts | 353° |
| 2026-05-01 12:14 | 52.58287 | -1.58988 | 38175 ft | 460 kts | 353° |
| 2026-05-01 12:15 | 52.64653 | -1.60062 | 38183 ft | 460 kts | 353° |
| 2026-05-01 12:15 | 52.71024 | -1.61140 | 38174 ft | 460 kts | 353° |
| 2026-05-01 12:16 | 52.77395 | -1.62220 | 38158 ft | 461 kts | 353° |
| 2026-05-01 12:16 | 52.83771 | -1.63305 | 38154 ft | 461 kts | 353° |
| 2026-05-01 12:17 | 52.89074 | -1.64209 | 38152 ft | 461 kts | 353° |
| 2026-05-01 12:17 | 52.95466 | -1.65300 | 38149 ft | 462 kts | 353° |
| 2026-05-01 12:18 | 53.01846 | -1.66394 | 38152 ft | 462 kts | 353° |
| 2026-05-01 12:18 | 53.08128 | -1.68451 | 38141 ft | 459 kts | 338° |
| 2026-05-01 12:19 | 53.14103 | -1.72217 | 38135 ft | 459 kts | 337° |
| 2026-05-01 12:19 | 53.20066 | -1.76049 | 38140 ft | 459 kts | 337° |
| 2026-05-01 12:20 | 53.26048 | -1.79820 | 38145 ft | 460 kts | 338° |
| 2026-05-01 12:20 | 53.32040 | -1.83562 | 38146 ft | 460 kts | 338° |
| 2026-05-01 12:21 | 53.38036 | -1.87309 | 38130 ft | 460 kts | 338° |
| 2026-05-01 12:21 | 53.44027 | -1.91067 | 38140 ft | 460 kts | 338° |
| 2026-05-01 12:22 | 53.50016 | -1.94837 | 38140 ft | 460 kts | 338° |
| 2026-05-01 12:22 | 53.56002 | -1.98618 | 38141 ft | 460 kts | 337° |
| 2026-05-01 12:23 | 53.61996 | -2.02414 | 38142 ft | 460 kts | 337° |
| 2026-05-01 12:23 | 53.67989 | -2.06219 | 38139 ft | 460 kts | 337° |
| 2026-05-01 12:24 | 53.73977 | -2.10034 | 38151 ft | 460 kts | 337° |
| 2026-05-01 12:24 | 53.79907 | -2.14050 | 38134 ft | 459 kts | 335° |
| 2026-05-01 12:25 | 53.88763 | -2.20205 | 38140 ft | 458 kts | 336° |
| 2026-05-01 12:26 | 53.94670 | -2.24245 | 38128 ft | 458 kts | 336° |
| 2026-05-01 12:26 | 54.03501 | -2.30315 | 37675 ft | 460 kts | 335° |
| 2026-05-01 12:27 | 54.06480 | -2.32371 | 37333 ft | 454 kts | 336° |
| 2026-05-01 12:27 | 54.12278 | -2.36379 | 36559 ft | 445 kts | 336° |
| 2026-05-01 12:28 | 54.17974 | -2.40326 | 35801 ft | 438 kts | 335° |
| 2026-05-01 12:28 | 54.20790 | -2.42281 | 35421 ft | 435 kts | 336° |
| 2026-05-01 12:28 | 54.26357 | -2.46155 | 34678 ft | 429 kts | 335° |
| 2026-05-01 12:29 | 54.29109 | -2.48075 | 34310 ft | 426 kts | 335° |
| 2026-05-01 12:29 | 54.31847 | -2.49988 | 33917 ft | 424 kts | 335° |
| 2026-05-01 12:29 | 54.37267 | -2.53782 | 33122 ft | 418 kts | 335° |
| 2026-05-01 12:30 | 54.42608 | -2.57530 | 32406 ft | 411 kts | 335° |
| 2026-05-01 12:30 | 54.45247 | -2.59386 | 32043 ft | 408 kts | 335° |
| 2026-05-01 12:30 | 54.47868 | -2.61232 | 31705 ft | 406 kts | 335° |
| 2026-05-01 12:31 | 54.50470 | -2.63068 | 31362 ft | 403 kts | 335° |
| 2026-05-01 12:31 | 54.53059 | -2.64897 | 31006 ft | 401 kts | 335° |
| 2026-05-01 12:31 | 54.55597 | -2.66692 | 30668 ft | 399 kts | 335° |
| 2026-05-01 12:31 | 54.58155 | -2.68503 | 30335 ft | 397 kts | 335° |
| 2026-05-01 12:32 | 54.60704 | -2.70311 | 29964 ft | 396 kts | 335° |
| 2026-05-01 12:32 | 54.65765 | -2.73908 | 29192 ft | 390 kts | 335° |
| 2026-05-01 12:32 | 54.68266 | -2.75688 | 28841 ft | 387 kts | 335° |
| 2026-05-01 12:33 | 54.70744 | -2.77454 | 28477 ft | 385 kts | 335° |
| 2026-05-01 12:33 | 54.73209 | -2.79214 | 28138 ft | 382 kts | 335° |
| 2026-05-01 12:33 | 54.75657 | -2.80963 | 27780 ft | 379 kts | 335° |
| 2026-05-01 12:33 | 54.78090 | -2.82705 | 27441 ft | 377 kts | 335° |
| 2026-05-01 12:34 | 54.80505 | -2.84434 | 27099 ft | 375 kts | 335° |
| 2026-05-01 12:34 | 54.82908 | -2.86157 | 26757 ft | 373 kts | 335° |
| 2026-05-01 12:34 | 54.85299 | -2.87875 | 26418 ft | 371 kts | 335° |
| 2026-05-01 12:34 | 54.87676 | -2.89587 | 26077 ft | 369 kts | 335° |
| 2026-05-01 12:35 | 54.90061 | -2.91311 | 25564 ft | 375 kts | 334° |
| 2026-05-01 12:35 | 54.92486 | -2.93072 | 25062 ft | 380 kts | 334° |
| 2026-05-01 12:35 | 54.94947 | -2.94862 | 24538 ft | 385 kts | 335° |
| 2026-05-01 12:35 | 54.97431 | -2.96668 | 23988 ft | 389 kts | 335° |
| 2026-05-01 12:36 | 54.99938 | -2.98491 | 23386 ft | 393 kts | 334° |
| 2026-05-01 12:36 | 55.02453 | -3.00321 | 22780 ft | 389 kts | 334° |
| 2026-05-01 12:36 | 55.04935 | -3.02128 | 22234 ft | 384 kts | 334° |
| 2026-05-01 12:36 | 55.07386 | -3.03913 | 21697 ft | 379 kts | 334° |
| 2026-05-01 12:37 | 55.09812 | -3.05654 | 21070 ft | 377 kts | 337° |
| 2026-05-01 12:37 | 55.12399 | -3.06732 | 20273 ft | 385 kts | 352° |
| 2026-05-01 12:37 | 55.15065 | -3.07101 | 19639 ft | 384 kts | 355° |
| 2026-05-01 12:37 | 55.17727 | -3.07379 | 19059 ft | 382 kts | 355° |
| 2026-05-01 12:38 | 55.20365 | -3.07642 | 18491 ft | 379 kts | 355° |
| 2026-05-01 12:38 | 55.22991 | -3.07915 | 17826 ft | 376 kts | 355° |
| 2026-05-01 12:38 | 55.25579 | -3.08201 | 17242 ft | 369 kts | 354° |
| 2026-05-01 12:38 | 55.28119 | -3.08494 | 16676 ft | 363 kts | 354° |
| 2026-05-01 12:39 | 55.30626 | -3.08791 | 16137 ft | 358 kts | 354° |
| 2026-05-01 12:39 | 55.33094 | -3.09089 | 15595 ft | 353 kts | 354° |
| 2026-05-01 12:39 | 55.35526 | -3.09386 | 15078 ft | 348 kts | 354° |
| 2026-05-01 12:39 | 55.37925 | -3.09680 | 14558 ft | 344 kts | 355° |
| 2026-05-01 12:40 | 55.40300 | -3.09972 | 14058 ft | 340 kts | 355° |
| 2026-05-01 12:40 | 55.42648 | -3.10261 | 13505 ft | 337 kts | 355° |
| 2026-05-01 12:40 | 55.44972 | -3.10547 | 12963 ft | 333 kts | 355° |
| 2026-05-01 12:40 | 55.47267 | -3.10830 | 12454 ft | 329 kts | 355° |
| 2026-05-01 12:41 | 55.49534 | -3.11092 | 11966 ft | 325 kts | 354° |
| 2026-05-01 12:41 | 55.51775 | -3.11369 | 11474 ft | 322 kts | 355° |
| 2026-05-01 12:41 | 55.54001 | -3.11284 | 10984 ft | 319 kts | 4° |
| 2026-05-01 12:41 | 55.56199 | -3.10881 | 10529 ft | 316 kts | 6° |
| 2026-05-01 12:42 | 55.58378 | -3.10445 | 10068 ft | 314 kts | 6° |
| 2026-05-01 12:42 | 55.60544 | -3.10005 | 9556 ft | 312 kts | 6° |
| 2026-05-01 12:42 | 55.62688 | -3.09551 | 9076 ft | 308 kts | 6° |
| 2026-05-01 12:42 | 55.64795 | -3.09091 | 8668 ft | 303 kts | 6° |
| 2026-05-01 12:43 | 55.66895 | -3.08625 | 8164 ft | 307 kts | 6° |
| 2026-05-01 12:43 | 55.69026 | -3.08146 | 7802 ft | 308 kts | 6° |
| 2026-05-01 12:43 | 55.71142 | -3.07666 | 7545 ft | 305 kts | 6° |
| 2026-05-01 12:43 | 55.73235 | -3.07182 | 7285 ft | 302 kts | 6° |
| 2026-05-01 12:44 | 55.75313 | -3.06690 | 7024 ft | 300 kts | 6° |
| 2026-05-01 12:44 | 55.77361 | -3.06189 | 6726 ft | 294 kts | 6° |
| 2026-05-01 12:44 | 55.81306 | -3.05196 | 6049 ft | 279 kts | 6° |
| 2026-05-01 12:45 | 55.85040 | -3.04244 | 5401 ft | 268 kts | 6° |
| 2026-05-01 12:45 | 55.86877 | -3.03771 | 5104 ft | 262 kts | 6° |
| 2026-05-01 12:45 | 55.88660 | -3.03309 | 4838 ft | 256 kts | 6° |
| 2026-05-01 12:46 | 55.90411 | -3.02860 | 4551 ft | 252 kts | 6° |
| 2026-05-01 12:46 | 55.92113 | -3.02425 | 4304 ft | 242 kts | 6° |
| 2026-05-01 12:46 | 55.93753 | -3.02009 | 4079 ft | 234 kts | 6° |
| 2026-05-01 12:46 | 55.95321 | -3.01686 | 3932 ft | 221 kts | 356° |
| 2026-05-01 12:47 | 55.96714 | -3.02448 | 3781 ft | 204 kts | 324° |
| 2026-05-01 12:47 | 55.97890 | -3.03773 | 3617 ft | 198 kts | 324° |
| 2026-05-01 12:47 | 55.99060 | -3.05065 | 3455 ft | 197 kts | 324° |
| 2026-05-01 12:47 | 56.00230 | -3.06359 | 3295 ft | 198 kts | 324° |
| 2026-05-01 12:48 | 56.01399 | -3.07659 | 3136 ft | 197 kts | 324° |
| 2026-05-01 12:48 | 56.02533 | -3.08926 | 3021 ft | 187 kts | 324° |
| 2026-05-01 12:48 | 56.03547 | -3.10284 | 2972 ft | 179 kts | 303° |
| 2026-05-01 12:48 | 56.03813 | -3.12283 | 2993 ft | 166 kts | 249° |
| 2026-05-01 12:49 | 56.03160 | -3.13930 | 2948 ft | 166 kts | 224° |
| 2026-05-01 12:49 | 56.02427 | -3.15584 | 2717 ft | 169 kts | 233° |
| 2026-05-01 12:49 | 56.01778 | -3.17324 | 2494 ft | 167 kts | 234° |
| 2026-05-01 12:49 | 56.01171 | -3.19061 | 2268 ft | 161 kts | 236° |
| 2026-05-01 12:50 | 56.00588 | -3.20766 | 2071 ft | 163 kts | 237° |
| 2026-05-01 12:50 | 55.99997 | -3.22502 | 1876 ft | 160 kts | 237° |
| 2026-05-01 12:50 | 55.99443 | -3.24136 | 1636 ft | 148 kts | 237° |
| 2026-05-01 12:50 | 55.98932 | -3.25641 | 1440 ft | 136 kts | 237° |
| 2026-05-01 12:51 | 55.98448 | -3.27069 | 1263 ft | 135 kts | 237° |
| 2026-05-01 12:51 | 55.97964 | -3.28494 | 1083 ft | 135 kts | 238° |
| 2026-05-01 12:51 | 55.96983 | -3.31393 | 742 ft | 135 kts | 239° |
| 2026-05-01 12:52 | 55.96504 | -3.32818 | 537 ft | 132 kts | 239° |
| 2026-05-01 12:52 | 55.95586 | -3.35521 | 164 ft | 121 kts | 238° |
| 2026-05-01 12:52 | 55.95175 | -3.36730 | 111 ft | 100 kts | 238° |
| 2026-05-01 12:53 | 55.94746 | -3.37996 | 112 ft | 17 kts | 239° |
| 2026-05-01 12:53 | 55.94679 | -3.38037 | 114 ft | 11 kts | 159° |
| 2026-05-01 12:53 | 55.94616 | -3.37973 | 114 ft | 10 kts | 149° |
| 2026-05-01 12:54 | 55.94597 | -3.37868 | 112 ft | 10 kts | 66° |
| 2026-05-01 12:54 | 55.94668 | -3.37658 | 115 ft | 10 kts | 59° |
| 2026-05-01 12:54 | 55.94702 | -3.37557 | 114 ft | 9 kts | 59° |
| 2026-05-01 12:55 | 55.94767 | -3.37363 | 114 ft | 9 kts | 59° |
| 2026-05-01 12:55 | 55.94801 | -3.37262 | 114 ft | 10 kts | 59° |
| 2026-05-01 12:55 | 55.94839 | -3.37149 | 114 ft | 11 kts | 57° |
| 2026-05-01 12:56 | 55.94891 | -3.36996 | 112 ft | 21 kts | 59° |
| 2026-05-01 12:56 | 55.94973 | -3.36757 | 114 ft | 23 kts | 59° |
| 2026-05-01 12:56 | 55.95054 | -3.36519 | 114 ft | 22 kts | 59° |
| 2026-05-01 12:56 | 55.95127 | -3.36303 | 114 ft | 14 kts | 62° |
| 2026-05-01 12:57 | 55.95119 | -3.36137 | 114 ft | 13 kts | 110° |
| 2026-05-01 12:57 | 55.95044 | -3.35846 | 113 ft | 13 kts | 136° |
| 2026-05-01 12:57 | 55.94994 | -3.35903 | 113 ft | 10 kts | 248° |
| 2026-05-01 12:58 | 55.94972 | -3.36015 | 115 ft | 7 kts | 250° |
| 2026-05-01 12:58 | 55.94969 | -3.36030 | 115 ft | 0 kts | 250° |